Leader — WCY8495 — position and weather

sailwx.info

Track history (hours):
 
Tides and Currents Weather Stations Pressure Air Temp Water Temp Dewpoint Dewpoint Depression Visibility Wind Speed Wind Dir Waves Ship Positions

Leader

Owner: Crowley Marine Services, SEATTLE, WA. More information available from US FCC via Universal Licensing System and Coast Guard Vessel Documentation Center.

Last reported at 2017-Sep-21 23:00 UTC. Time now 2017-Sep-21 23:16 UTC.
Position N 33°44' W 118°17'.

Length 30 m; draft 4.9 m.

Type: Tug. MMSI: 366760650.

Date/timePositionNaut miles runAvg speedWind from/ knotsBaromVisibWave heightAir tempDewpointWater temp
2017-Sep-21 23:00N 33°44' W 118°17'0 0.0
2017-Sep-21 22:30N 33°44' W 118°17'0 0.0
2017-Sep-21 21:59N 33°44' W 118°17'0 0.0
2017-Sep-21 21:30N 33°44' W 118°17'0 0.0
2017-Sep-21 20:59N 33°44' W 118°17'0 0.0
2017-Sep-21 20:30N 33°44' W 118°17'0 0.0
2017-Sep-21 20:00N 33°44' W 118°17'0 0.0
2017-Sep-21 19:30N 33°44' W 118°17'0 0.0
2017-Sep-21 19:00N 33°44' W 118°17'0 0.0
2017-Sep-21 18:30N 33°44' W 118°17'0 0.0
2017-Sep-21 18:00N 33°44' W 118°17'2 4.6
2017-Sep-21 17:30N 33°43' W 118°15'3 5.0
2017-Sep-21 17:00N 33°45' W 118°13'1 1.1
2017-Sep-21 16:30N 33°44' W 118°12'1 1.9
2017-Sep-21 16:00N 33°44' W 118°12'0 0.0
2017-Sep-21 15:28N 33°44' W 118°12'4 7.4
2017-Sep-21 14:59N 33°43' W 118°16'2 3.5
2017-Sep-21 14:30N 33°45' W 118°16'1 2.3
2017-Sep-21 13:57N 33°44' W 118°16'1 1.2
2017-Sep-21 13:28N 33°44' W 118°17'2 4.6
2017-Sep-21 13:00N 33°46' W 118°15'1 1.7
2017-Sep-21 12:29N 33°45' W 118°16'3 5.4
2017-Sep-21 11:59N 33°43' W 118°15'0 0.4
2017-Sep-21 11:30N 33°43' W 118°15'2 3.7
2017-Sep-21 11:00N 33°44' W 118°13'1 2.4
2017-Sep-21 10:26N 33°45' W 118°13'0 0.3
2017-Sep-21 10:00N 33°46' W 118°13'0 0.8
2017-Sep-21 09:30N 33°46' W 118°13'0 0.7
2017-Sep-21 08:58N 33°46' W 118°13'2 4.0
2017-Sep-21 08:30N 33°44' W 118°13'1 2.2
2017-Sep-21 07:54N 33°44' W 118°12'0 0.4
2017-Sep-21 07:24N 33°44' W 118°12'3 8.3
2017-Sep-21 07:00N 33°43' W 118°16'2 3.4
2017-Sep-21 06:30N 33°44' W 118°17'0 0.0
2017-Sep-21 05:59N 33°44' W 118°17'0 0.0
2017-Sep-21 05:30N 33°44' W 118°17'0 0.0
2017-Sep-21 05:00N 33°44' W 118°17'0 0.0
2017-Sep-21 04:30N 33°44' W 118°17'0 0.0
2017-Sep-21 04:00N 33°44' W 118°17'0 0.0
2017-Sep-21 03:30N 33°44' W 118°17'0 0.0
2017-Sep-21 03:00N 33°44' W 118°17'0 0.0
2017-Sep-21 02:30N 33°44' W 118°17'0 0.0
2017-Sep-21 02:00N 33°44' W 118°17'0 0.0
2017-Sep-21 01:30N 33°44' W 118°17'2 4.7
2017-Sep-21 01:00N 33°43' W 118°15'3 5.7
2017-Sep-21 00:30N 33°46' W 118°13'1 2.0
2017-Sep-21 00:00N 33°46' W 118°14'0 0.1
2017-Sep-20 23:30N 33°46' W 118°14'0 0.0
2017-Sep-20 23:00N 33°46' W 118°14'1 1.2
2017-Sep-20 22:30N 33°46' W 118°14'1 1.8
2017-Sep-20 22:00N 33°45' W 118°13'1 1.9
2017-Sep-20 21:29N 33°46' W 118°13'0 0.1
2017-Sep-20 21:00N 33°46' W 118°13'2 5.1
2017-Sep-20 20:30N 33°44' W 118°14'3 5.1
2017-Sep-20 20:00N 33°44' W 118°17'0 0.1
2017-Sep-20 19:30N 33°44' W 118°17'2 4.0
2017-Sep-20 19:00N 33°43' W 118°15'3 5.0
2017-Sep-20 18:30N 33°45' W 118°16'1 2.8
2017-Sep-20 18:00N 33°46' W 118°15'0 0.1
2017-Sep-20 17:30N 33°46' W 118°14'2 4.8
2017-Sep-20 17:00N 33°44' W 118°17'0 0.0
2017-Sep-20 16:30N 33°44' W 118°17'0 0.0
2017-Sep-20 16:00N 33°44' W 118°17'0 0.0
2017-Sep-20 15:29N 33°44' W 118°17'1 2.3
2017-Sep-20 14:53N 33°43' W 118°16'4 4.6
2017-Sep-20 14:00N 33°46' W 118°13'1 2.4
2017-Sep-20 13:30N 33°45' W 118°13'0 0.5
2017-Sep-20 13:00N 33°45' W 118°13'0 0.0
2017-Sep-20 12:26N 33°45' W 118°13'0 0.0
2017-Sep-20 11:59N 33°45' W 118°13'0 0.1
2017-Sep-20 11:28N 33°45' W 118°13'1 3.0
2017-Sep-20 10:59N 33°44' W 118°12'1 1.8
2017-Sep-20 10:30N 33°44' W 118°11'0 0.1
2017-Sep-20 10:00N 33°44' W 118°12'0 0.8
2017-Sep-20 09:30N 33°43' W 118°12'4 7.3
2017-Sep-20 09:00N 33°44' W 118°16'1 1.5
2017-Sep-20 08:30N 33°44' W 118°17'0 0.0
2017-Sep-20 08:00N 33°44' W 118°17'0 0.0
2017-Sep-20 07:30N 33°44' W 118°17'0 0.0
2017-Sep-20 06:57N 33°44' W 118°17'0 0.0
2017-Sep-20 06:30N 33°44' W 118°17'0 0.0
2017-Sep-20 06:00N 33°44' W 118°17'0 0.0
2017-Sep-20 05:29N 33°44' W 118°17'0 0.0
2017-Sep-20 05:00N 33°44' W 118°17'0 0.0
2017-Sep-20 04:29N 33°44' W 118°17'0 0.0
2017-Sep-20 04:00N 33°44' W 118°17'0 0.0
2017-Sep-20 03:30N 33°44' W 118°17'0 0.0
2017-Sep-20 03:00N 33°44' W 118°17'0 0.0
2017-Sep-20 02:30N 33°44' W 118°17'0 0.0
2017-Sep-20 02:00N 33°44' W 118°17'0 0.0
2017-Sep-20 01:30N 33°44' W 118°17'0 0.0
2017-Sep-20 01:00N 33°44' W 118°17'0 0.0
2017-Sep-20 00:30N 33°44' W 118°17'1 2.6
2017-Sep-20 00:00N 33°45' W 118°16'1 2.2
2017-Sep-19 23:30N 33°46' W 118°15'1 1.7
2017-Sep-19 23:00N 33°46' W 118°15'1 1.4
2017-Sep-19 22:30N 33°45' W 118°16'0 0.0
2017-Sep-19 22:00N 33°45' W 118°16'2 3.1
2017-Sep-19 21:30N 33°44' W 118°16'3 6.6
2017-Sep-19 21:01N 33°44' W 118°13'1 1.0
2017-Sep-19 20:30N 33°45' W 118°12'1 2.6
2017-Sep-19 20:00N 33°44' W 118°13'0 0.6
2017-Sep-19 19:30N 33°44' W 118°14'2 4.1
2017-Sep-19 18:59N 33°43' W 118°16'1 2.5
2017-Sep-19 18:30N 33°44' W 118°17'0 0.0
2017-Sep-19 17:59N 33°44' W 118°17'0 0.0
2017-Sep-19 17:29N 33°44' W 118°17'0 0.0
2017-Sep-19 17:00N 33°44' W 118°17'0 0.0
2017-Sep-19 16:30N 33°44' W 118°17'0 0.0
2017-Sep-19 16:00N 33°44' W 118°17'0 0.0
2017-Sep-19 15:29N 33°44' W 118°17'0 0.0
2017-Sep-19 15:00N 33°44' W 118°17'0 0.0
2017-Sep-19 14:27N 33°44' W 118°17'0 0.0
2017-Sep-19 13:58N 33°44' W 118°17'1 1.1
2017-Sep-19 13:23N 33°44' W 118°16'1 3.7
2017-Sep-19 13:00N 33°45' W 118°16'0 0.3
2017-Sep-19 12:29N 33°45' W 118°17'2 3.7
2017-Sep-19 12:00N 33°46' W 118°15'0 0.5
2017-Sep-19 11:28N 33°46' W 118°15'1 1.8
2017-Sep-19 10:58N 33°45' W 118°16'2 4.5
2017-Sep-19 10:29N 33°43' W 118°16'1 2.6
2017-Sep-19 09:58N 33°43' W 118°15'0 0.1
2017-Sep-19 09:29N 33°43' W 118°15'2 4.5
2017-Sep-19 08:59N 33°44' W 118°17'0 0.0
2017-Sep-19 08:30N 33°44' W 118°17'0 0.0
2017-Sep-19 07:57N 33°44' W 118°17'0 0.0
2017-Sep-19 07:28N 33°44' W 118°17'0 0.0
2017-Sep-19 06:58N 33°44' W 118°17'0 0.0
2017-Sep-19 06:30N 33°44' W 118°17'0 0.0
2017-Sep-19 06:00N 33°44' W 118°17'0 0.0
2017-Sep-19 05:30N 33°44' W 118°17'0 0.0
2017-Sep-19 05:00N 33°44' W 118°17'0 0.0
2017-Sep-19 04:28N 33°44' W 118°17'0 0.0
2017-Sep-19 04:00N 33°44' W 118°17'0 0.0
2017-Sep-19 03:30N 33°44' W 118°17'0 0.0
2017-Sep-19 03:00N 33°44' W 118°17'0 0.0
2017-Sep-19 02:28N 33°44' W 118°17'0 0.0
2017-Sep-19 01:58N 33°44' W 118°17'0 0.0
2017-Sep-19 01:28N 33°44' W 118°17'0 0.0
2017-Sep-19 00:59N 33°44' W 118°17'1 1.3
2017-Sep-19 00:31N 33°45' W 118°16'1 2.2
2017-Sep-19 00:00N 33°46' W 118°16'0 0.7
2017-Sep-18 23:30N 33°46' W 118°16'2 3.4
2017-Sep-18 23:00N 33°44' W 118°16'2 3.4
2017-Sep-18 22:28N 33°43' W 118°15'0 0.3
2017-Sep-18 21:57N 33°43' W 118°15'0 1.0
2017-Sep-18 21:30N 33°43' W 118°15'2 4.1
2017-Sep-18 21:00N 33°44' W 118°17'0 0.0
2017-Sep-18 20:28N 33°44' W 118°17'0 0.0
2017-Sep-18 19:59N 33°44' W 118°17'0 0.0
2017-Sep-18 19:31N 33°44' W 118°17'0 0.0
2017-Sep-18 19:00N 33°44' W 118°17'0 0.0
2017-Sep-18 18:31N 33°44' W 118°17'0 0.0
2017-Sep-18 18:00N 33°44' W 118°17'0 0.0
2017-Sep-18 17:30N 33°44' W 118°17'0 0.0
2017-Sep-18 17:00N 33°44' W 118°17'0 0.0
2017-Sep-18 16:31N 33°44' W 118°17'0 0.0
2017-Sep-18 16:00N 33°44' W 118°17'0 0.0
2017-Sep-18 15:30N 33°44' W 118°17'0 0.0
2017-Sep-18 15:00N 33°44' W 118°17'0 0.0
2017-Sep-18 14:27N 33°44' W 118°17'0 0.0
2017-Sep-18 14:00N 33°44' W 118°17'0 0.0
2017-Sep-18 13:28N 33°44' W 118°17'0 0.0
2017-Sep-18 13:00N 33°44' W 118°17'0 0.0
2017-Sep-18 12:26N 33°44' W 118°17'2 4.4
2017-Sep-18 12:01N 33°43' W 118°15'2 4.7
2017-Sep-18 11:29N 33°45' W 118°14'0 0.6
2017-Sep-18 11:00N 33°45' W 118°14'2 4.3
2017-Sep-18 10:30N 33°44' W 118°12'1 1.6
2017-Sep-18 10:00N 33°44' W 118°11'0 0.2
2017-Sep-18 09:31N 33°44' W 118°12'3 6.9
2017-Sep-18 09:00N 33°43' W 118°16'2 3.4
2017-Sep-18 08:30N 33°44' W 118°17'0 0.0
2017-Sep-18 07:57N 33°44' W 118°17'0 0.0
2017-Sep-18 07:29N 33°44' W 118°17'0 0.0
2017-Sep-18 07:00N 33°44' W 118°17'0 0.0
2017-Sep-18 06:27N 33°44' W 118°17'0 0.0
2017-Sep-18 06:00N 33°44' W 118°17'0 0.0
2017-Sep-18 05:28N 33°44' W 118°17'0 0.0
2017-Sep-18 04:58N 33°44' W 118°17'0 0.0
2017-Sep-18 04:30N 33°44' W 118°17'0 0.0
2017-Sep-18 03:59N 33°44' W 118°17'0 0.0
2017-Sep-18 03:30N 33°44' W 118°17'0 0.0
2017-Sep-18 02:59N 33°44' W 118°17'0 0.0
2017-Sep-18 02:30N 33°44' W 118°17'0 0.0
2017-Sep-18 02:00N 33°44' W 118°17'0 0.0
2017-Sep-18 01:29N 33°44' W 118°17'0 0.0
2017-Sep-18 00:57N 33°44' W 118°17'0 0.0
2017-Sep-18 00:28N 33°44' W 118°17'0 0.0
2017-Sep-18 00:00N 33°44' W 118°17'0 0.0
2017-Sep-17 23:30N 33°44' W 118°17'0 0.0
2017-Sep-17 23:00N 33°44' W 118°17'0 0.0
2017-Sep-17 22:30N 33°44' W 118°17'0 0.0
2017-Sep-17 21:56N 33°44' W 118°17'0 0.0
2017-Sep-17 21:29N 33°44' W 118°17'0 0.0
2017-Sep-17 21:00N 33°44' W 118°17'0 0.0
2017-Sep-17 20:30N 33°44' W 118°17'0 0.0
2017-Sep-17 19:59N 33°44' W 118°17'0 0.0
2017-Sep-17 19:29N 33°44' W 118°17'0 0.0
2017-Sep-17 19:00N 33°44' W 118°17'0 0.0
2017-Sep-17 18:28N 33°44' W 118°17'0 0.0
2017-Sep-17 18:00N 33°44' W 118°17'0 0.0
2017-Sep-17 17:29N 33°44' W 118°17'0 0.0
2017-Sep-17 16:53N 33°44' W 118°17'0 0.0
2017-Sep-17 16:23N 33°44' W 118°17'0 0.0
2017-Sep-17 15:57N 33°44' W 118°17'0 0.7
2017-Sep-17 15:24N 33°44' W 118°17'3 5.5
2017-Sep-17 14:56N 33°44' W 118°13'2 3.6
2017-Sep-17 14:30N 33°45' W 118°13'0 0.0
2017-Sep-17 13:59N 33°45' W 118°13'0 0.5
2017-Sep-17 13:26N 33°45' W 118°13'1 3.2
2017-Sep-17 12:59N 33°44' W 118°12'1 1.5
2017-Sep-17 12:28N 33°43' W 118°12'0 0.0
2017-Sep-17 11:59N 33°43' W 118°12'0 0.3
2017-Sep-17 11:30N 33°44' W 118°12'4 7.4
2017-Sep-17 11:00N 33°43' W 118°16'1 2.2
2017-Sep-17 10:29N 33°44' W 118°17'0 0.0
2017-Sep-17 09:55N 33°44' W 118°17'0 0.0
2017-Sep-17 09:29N 33°44' W 118°17'0 0.0
2017-Sep-17 09:00N 33°44' W 118°17'0 0.0
2017-Sep-17 08:30N 33°44' W 118°17'0 0.0
2017-Sep-17 08:00N 33°44' W 118°17'0 0.0
2017-Sep-17 07:30N 33°44' W 118°17'0 0.0
2017-Sep-17 06:58N 33°44' W 118°17'0 0.0
2017-Sep-17 06:28N 33°44' W 118°17'0 0.0
2017-Sep-17 05:56N 33°44' W 118°17'0 0.0
2017-Sep-17 05:28N 33°44' W 118°17'0 0.0
2017-Sep-17 05:00N 33°44' W 118°17'0 0.0
2017-Sep-17 04:29N 33°44' W 118°17'0 0.0
2017-Sep-17 04:00N 33°44' W 118°17'0 0.0
2017-Sep-17 03:30N 33°44' W 118°17'0 0.0
2017-Sep-17 02:59N 33°44' W 118°17'0 0.0
2017-Sep-17 02:27N 33°44' W 118°17'0 0.0
2017-Sep-17 02:00N 33°44' W 118°17'0 0.0
2017-Sep-17 01:29N 33°44' W 118°17'0 0.0
2017-Sep-17 01:00N 33°44' W 118°17'0 0.0
2017-Sep-17 00:30N 33°44' W 118°17'0 0.0
2017-Sep-16 23:59N 33°44' W 118°17'0 0.0
2017-Sep-16 23:30N 33°44' W 118°17'0 0.0
2017-Sep-16 23:00N 33°44' W 118°17'0 0.0
2017-Sep-16 22:30N 33°44' W 118°17'0 0.0
2017-Sep-16 22:00N 33°44' W 118°17'0 0.0
2017-Sep-16 21:30N 33°44' W 118°17'0 0.0
2017-Sep-16 21:00N 33°44' W 118°17'1 2.7
2017-Sep-16 20:30N 33°43' W 118°16'3 5.9
2017-Sep-16 20:00N 33°41' W 118°19'5 9.2
2017-Sep-16 19:25N 33°43' W 118°25'4 8.7
2017-Sep-16 19:00N 33°46' W 118°27'8 5.0
2017-Sep-16 17:23N 33°54' W 118°27'7 2.6
2017-Sep-16 14:43N 33°48' W 118°28'2 8.9
2017-Sep-16 14:30N 33°46' W 118°27'6 8.4
2017-Sep-16 13:50N 33°42' W 118°22'4 8.5
2017-Sep-16 13:22N 33°41' W 118°17'2 6.0
2017-Sep-16 12:58N 33°43' W 118°15'2 4.1
2017-Sep-16 12:30N 33°44' W 118°17'0 0.0
2017-Sep-16 11:54N 33°44' W 118°17'0 0.0
2017-Sep-16 11:27N 33°44' W 118°17'0 0.0
2017-Sep-16 11:00N 33°44' W 118°17'0 0.0
2017-Sep-16 10:28N 33°44' W 118°17'0 0.0
2017-Sep-16 09:55N 33°44' W 118°17'0 0.0
2017-Sep-16 09:30N 33°44' W 118°17'0 0.0
2017-Sep-16 09:00N 33°44' W 118°17'0 0.0
2017-Sep-16 08:28N 33°44' W 118°17'0 0.0
2017-Sep-16 08:00N 33°44' W 118°17'0 0.0
2017-Sep-16 07:27N 33°44' W 118°17'0 0.0
2017-Sep-16 07:00N 33°44' W 118°17'0 0.0
2017-Sep-16 06:30N 33°44' W 118°17'0 0.0
2017-Sep-16 05:59N 33°44' W 118°17'0 0.0
2017-Sep-16 05:28N 33°44' W 118°17'0 0.0
2017-Sep-16 05:00N 33°44' W 118°17'0 0.0
2017-Sep-16 04:30N 33°44' W 118°17'0 0.0
2017-Sep-16 04:00N 33°44' W 118°17'0 0.0
2017-Sep-16 03:30N 33°44' W 118°17'1 1.4
2017-Sep-16 03:00N 33°44' W 118°16'3 5.7
2017-Sep-16 02:30N 33°45' W 118°13'1 2.7
2017-Sep-16 02:00N 33°46' W 118°13'0 0.8
2017-Sep-16 01:30N 33°46' W 118°13'0 0.2
2017-Sep-16 01:00N 33°46' W 118°13'0 0.0
2017-Sep-16 00:30N 33°46' W 118°13'1 2.4
2017-Sep-16 00:00N 33°45' W 118°13'0 0.0
2017-Sep-15 23:30N 33°45' W 118°13'0 0.0
2017-Sep-15 23:00N 33°45' W 118°13'0 0.0
2017-Sep-15 22:30N 33°45' W 118°13'2 4.4
2017-Sep-15 22:00N 33°43' W 118°14'1 2.3
2017-Sep-15 21:30N 33°44' W 118°15'0 0.9
2017-Sep-15 21:00N 33°44' W 118°16'1 2.4
2017-Sep-15 20:30N 33°43' W 118°15'0 0.8
2017-Sep-15 19:59N 33°43' W 118°15'2 3.1
2017-Sep-15 19:30N 33°44' W 118°16'1 1.8
2017-Sep-15 19:00N 33°44' W 118°17'0 0.0
2017-Sep-15 18:30N 33°44' W 118°17'0 0.0
2017-Sep-15 18:00N 33°44' W 118°17'0 0.0
2017-Sep-15 17:30N 33°44' W 118°17'0 0.0
2017-Sep-15 17:00N 33°44' W 118°17'0 0.0
2017-Sep-15 16:29N 33°44' W 118°17'0 0.0
2017-Sep-15 15:58N 33°44' W 118°17'0 0.0
2017-Sep-15 15:30N 33°44' W 118°17'3 5.7
2017-Sep-15 15:00N 33°43' W 118°14'2 3.8
2017-Sep-15 14:29N 33°45' W 118°13'0 0.5
2017-Sep-15 13:57N 33°46' W 118°13'0 0.2
2017-Sep-15 13:29N 33°45' W 118°13'0 0.6
2017-Sep-15 13:00N 33°45' W 118°13'3 6.8
2017-Sep-15 12:30N 33°43' W 118°16'1 2.9
2017-Sep-15 12:00N 33°44' W 118°17'0 0.0
2017-Sep-15 11:30N 33°44' W 118°17'0 0.0
2017-Sep-15 11:00N 33°44' W 118°17'0 0.0
2017-Sep-15 10:30N 33°44' W 118°17'0 0.0
2017-Sep-15 10:00N 33°44' W 118°17'0 0.0
2017-Sep-15 09:30N 33°44' W 118°17'0 0.0
2017-Sep-15 09:01N 33°44' W 118°17'0 0.0
2017-Sep-15 08:30N 33°44' W 118°17'0 0.0
2017-Sep-15 08:00N 33°44' W 118°17'1 1.8
2017-Sep-15 07:30N 33°45' W 118°16'1 1.2
2017-Sep-15 07:00N 33°45' W 118°16'2 4.9
2017-Sep-15 06:30N 33°43' W 118°15'0 0.2
2017-Sep-15 06:00N 33°43' W 118°15'2 3.9
2017-Sep-15 05:30N 33°44' W 118°16'1 1.1
2017-Sep-15 05:00N 33°44' W 118°17'0 0.0
2017-Sep-15 04:30N 33°44' W 118°17'0 0.0
2017-Sep-15 03:58N 33°44' W 118°17'0 0.0
2017-Sep-15 03:30N 33°44' W 118°17'0 0.0
2017-Sep-15 03:00N 33°44' W 118°17'0 0.0
2017-Sep-15 02:30N 33°44' W 118°17'0 0.0
2017-Sep-15 02:00N 33°44' W 118°17'0 0.0
2017-Sep-15 01:30N 33°44' W 118°17'0 0.0
2017-Sep-15 00:59N 33°44' W 118°17'0 0.0
2017-Sep-15 00:30N 33°44' W 118°17'0 0.0
2017-Sep-15 00:00N 33°44' W 118°17'0 0.0
2017-Sep-14 23:30N 33°44' W 118°17'0 0.0
2017-Sep-14 23:00N 33°44' W 118°17'0 0.0
2017-Sep-14 22:30N 33°44' W 118°17'0 0.0
2017-Sep-14 22:00N 33°44' W 118°17'0 0.0
2017-Sep-14 21:29N 33°44' W 118°17'0 0.0
2017-Sep-14 21:00N 33°44' W 118°17'0 0.0
2017-Sep-14 20:30N 33°44' W 118°17'0 0.0
2017-Sep-14 20:00N 33°44' W 118°17'0 0.0
2017-Sep-14 19:30N 33°44' W 118°17'0 0.0
2017-Sep-14 19:00N 33°44' W 118°17'0 0.0
2017-Sep-14 18:30N 33°44' W 118°17'0 0.0
2017-Sep-14 18:00N 33°44' W 118°17'0 0.0
2017-Sep-14 17:29N 33°44' W 118°17'0 0.0
2017-Sep-14 17:00N 33°44' W 118°17'0 0.0
2017-Sep-14 16:30N 33°44' W 118°17'0 0.0
2017-Sep-14 16:00N 33°44' W 118°17'0 0.0
2017-Sep-14 15:30N 33°44' W 118°17'0 0.0
2017-Sep-14 15:00N 33°44' W 118°17'0 0.0
2017-Sep-14 14:30N 33°44' W 118°17'0 0.0
2017-Sep-14 14:00N 33°44' W 118°17'0 0.0
2017-Sep-14 13:30N 33°44' W 118°17'0 0.0
2017-Sep-14 13:00N 33°44' W 118°17'1 1.5
2017-Sep-14 12:30N 33°45' W 118°16'2 4.2
2017-Sep-14 12:01N 33°43' W 118°16'0 0.9
2017-Sep-14 11:31N 33°43' W 118°15'1 2.1
2017-Sep-14 11:00N 33°44' W 118°15'1 1.9
2017-Sep-14 10:30N 33°43' W 118°16'1 2.7
2017-Sep-14 09:59N 33°44' W 118°17'0 0.0
2017-Sep-14 09:29N 33°44' W 118°17'0 0.0
2017-Sep-14 09:00N 33°44' W 118°17'0 0.0
2017-Sep-14 08:30N 33°44' W 118°17'1 1.1
2017-Sep-14 08:00N 33°45' W 118°16'2 2.9
2017-Sep-14 07:29N 33°46' W 118°15'0 0.6
2017-Sep-14 06:59N 33°46' W 118°15'2 3.7
2017-Sep-14 06:30N 33°44' W 118°17'0 0.0
2017-Sep-14 05:59N 33°44' W 118°17'0 0.0
2017-Sep-14 05:30N 33°44' W 118°17'0 0.0
2017-Sep-14 05:00N 33°44' W 118°17'0 0.0
2017-Sep-14 04:30N 33°44' W 118°17'0 0.0
2017-Sep-14 04:00N 33°44' W 118°17'0 0.0
2017-Sep-14 03:30N 33°44' W 118°17'2 4.2
2017-Sep-14 03:00N 33°43' W 118°15'3 5.5
2017-Sep-14 02:30N 33°45' W 118°12'1 1.3
2017-Sep-14 02:00N 33°45' W 118°13'1 2.5
2017-Sep-14 01:30N 33°46' W 118°14'0 0.3
2017-Sep-14 01:00N 33°46' W 118°14'0 0.7
2017-Sep-14 00:29N 33°46' W 118°14'1 2.7
2017-Sep-14 00:00N 33°45' W 118°13'0 0.0
2017-Sep-13 23:30N 33°45' W 118°13'0 0.0
2017-Sep-13 22:59N 33°45' W 118°13'0 0.0
2017-Sep-13 22:30N 33°45' W 118°13'1 1.0
2017-Sep-13 22:00N 33°45' W 118°12'1 1.2
2017-Sep-13 21:31N 33°44' W 118°12'2 4.6
2017-Sep-13 20:59N 33°44' W 118°09'0 0.1
2017-Sep-13 20:29N 33°44' W 118°09'3 5.9
2017-Sep-13 20:00N 33°45' W 118°13'1 1.0
2017-Sep-13 19:30N 33°45' W 118°13'0 0.0
2017-Sep-13 19:00N 33°45' W 118°13'0 0.0
2017-Sep-13 18:30N 33°45' W 118°13'0 0.0
2017-Sep-13 18:00N 33°45' W 118°13'0 0.0
2017-Sep-13 17:30N 33°45' W 118°13'0 0.0
2017-Sep-13 17:00N 33°45' W 118°13'0 0.0
2017-Sep-13 16:30N 33°45' W 118°13'0 0.0
2017-Sep-13 16:00N 33°45' W 118°13'0 0.0
2017-Sep-13 15:30N 33°45' W 118°13'0 0.0
2017-Sep-13 15:00N 33°45' W 118°13'0 0.0
2017-Sep-13 14:30N 33°45' W 118°13'0 0.1
2017-Sep-13 14:00N 33°45' W 118°13'0 0.9
2017-Sep-13 13:30N 33°45' W 118°12'1 1.4
2017-Sep-13 13:00N 33°45' W 118°13'0 0.1
2017-Sep-13 12:30N 33°45' W 118°13'0 0.4
2017-Sep-13 12:00N 33°45' W 118°13'1 2.3
2017-Sep-13 11:30N 33°45' W 118°14'0 0.5
2017-Sep-13 11:00N 33°45' W 118°14'1 3.0
2017-Sep-13 10:30N 33°44' W 118°12'1 3.0
2017-Sep-13 10:00N 33°44' W 118°11'2 4.3
2017-Sep-13 09:30N 33°45' W 118°13'0 0.5
2017-Sep-13 09:00N 33°45' W 118°13'0 0.0
2017-Sep-13 08:30N 33°45' W 118°13'0 0.0
2017-Sep-13 08:00N 33°45' W 118°13'0 0.0
2017-Sep-13 07:30N 33°45' W 118°13'0 0.0
2017-Sep-13 07:00N 33°45' W 118°13'0 0.0
2017-Sep-13 06:30N 33°45' W 118°13'0 0.0
2017-Sep-13 06:00N 33°45' W 118°13'1 2.1
2017-Sep-13 05:30N 33°46' W 118°13'0 0.4
2017-Sep-13 05:01N 33°46' W 118°13'0 0.3
2017-Sep-13 04:30N 33°46' W 118°13'3 6.5
2017-Sep-13 04:00N 33°43' W 118°14'2 4.7
2017-Sep-13 03:30N 33°44' W 118°17'0 0.0
2017-Sep-13 03:00N 33°44' W 118°17'0 0.0
2017-Sep-13 02:30N 33°44' W 118°17'0 0.0
2017-Sep-13 02:00N 33°44' W 118°17'0 0.0
2017-Sep-13 01:30N 33°44' W 118°17'0 0.0
2017-Sep-13 01:00N 33°44' W 118°17'0 0.0
2017-Sep-13 00:30N 33°44' W 118°17'0 0.0
2017-Sep-13 00:00N 33°44' W 118°17'0 0.0
2017-Sep-12 23:30N 33°44' W 118°17'0 0.0
2017-Sep-12 23:00N 33°44' W 118°17'0 0.2
2017-Sep-12 22:30N 33°44' W 118°17'3 5.7
2017-Sep-12 22:01N 33°44' W 118°13'2 3.1
2017-Sep-12 21:29N 33°45' W 118°12'1 1.7
2017-Sep-12 21:00N 33°44' W 118°12'0 0.9
2017-Sep-12 20:31N 33°44' W 118°13'3 5.8
2017-Sep-12 20:00N 33°44' W 118°17'1 1.0
2017-Sep-12 19:31N 33°44' W 118°17'0 0.0
2017-Sep-12 19:00N 33°44' W 118°17'0 0.0
2017-Sep-12 18:30N 33°44' W 118°17'0 0.0
2017-Sep-12 18:00N 33°44' W 118°17'0 0.0
2017-Sep-12 17:31N 33°44' W 118°17'0 0.0
2017-Sep-12 17:00N 33°44' W 118°17'0 0.0
2017-Sep-12 16:30N 33°44' W 118°17'0 0.0
2017-Sep-12 16:00N 33°44' W 118°17'0 0.0
2017-Sep-12 15:31N 33°44' W 118°17'0 0.0
2017-Sep-12 15:00N 33°44' W 118°17'0 0.0
2017-Sep-12 14:30N 33°44' W 118°17'0 0.0
2017-Sep-12 14:00N 33°44' W 118°17'1 1.0
2017-Sep-12 13:30N 33°45' W 118°16'0 0.7
2017-Sep-12 13:00N 33°45' W 118°17'1 1.8
2017-Sep-12 12:30N 33°44' W 118°16'1 1.1
2017-Sep-12 12:00N 33°43' W 118°16'3 5.2
2017-Sep-12 11:30N 33°44' W 118°13'1 2.7
2017-Sep-12 11:00N 33°45' W 118°15'1 1.9
2017-Sep-12 10:30N 33°45' W 118°13'2 4.6
2017-Sep-12 10:01N 33°43' W 118°11'0 0.7
2017-Sep-12 09:30N 33°44' W 118°12'4 7.5
2017-Sep-12 09:00N 33°43' W 118°16'1 2.3
2017-Sep-12 08:30N 33°44' W 118°17'0 0.0
2017-Sep-12 08:00N 33°44' W 118°17'0 0.0
2017-Sep-12 07:30N 33°44' W 118°17'0 0.0
2017-Sep-12 07:01N 33°44' W 118°17'0 0.0
2017-Sep-12 06:31N 33°44' W 118°17'0 0.0
2017-Sep-12 06:00N 33°44' W 118°17'0 0.0
2017-Sep-12 05:30N 33°44' W 118°17'0 0.0
2017-Sep-12 05:00N 33°44' W 118°17'0 0.0
2017-Sep-12 04:31N 33°44' W 118°17'0 0.0
2017-Sep-12 04:00N 33°44' W 118°17'0 0.0
2017-Sep-12 03:30N 33°44' W 118°17'1 1.8
2017-Sep-12 03:00N 33°44' W 118°16'3 6.5
2017-Sep-12 02:31N 33°44' W 118°12'2 4.1
2017-Sep-12 02:00N 33°43' W 118°14'3 6.7
2017-Sep-12 01:30N 33°46' W 118°16'0 0.0
2017-Sep-12 01:00N 33°46' W 118°16'0 0.6
2017-Sep-12 00:30N 33°46' W 118°17'0 0.1
2017-Sep-12 00:00N 33°46' W 118°16'0 0.4
2017-Sep-11 23:30N 33°46' W 118°16'2 3.0
2017-Sep-11 23:00N 33°44' W 118°17'  
Track history (hours):
 
Tides and Currents Weather Stations Pressure Air Temp Water Temp Dewpoint Dewpoint Depression Visibility Wind Speed Wind Dir Waves Ship Positions

Leader

Owner: Crowley Marine Services, SEATTLE, WA. More information available from US FCC via Universal Licensing System and Coast Guard Vessel Documentation Center.

Last reported at 2017-Sep-21 23:00 UTC. Time now 2017-Sep-21 23:16 UTC.
Position N 33°44' W 118°17'.

Length 30 m; draft 4.9 m.

Type: Tug. MMSI: 366760650.

Date/timePositionNaut miles runAvg speedWind from/ knotsBaromVisibWave heightAir tempDewpointWater temp
2017-Sep-21 23:00N 33°44' W 118°17'0 0.0
2017-Sep-21 22:30N 33°44' W 118°17'0 0.0
2017-Sep-21 21:59N 33°44' W 118°17'0 0.0
2017-Sep-21 21:30N 33°44' W 118°17'0 0.0
2017-Sep-21 20:59N 33°44' W 118°17'0 0.0
2017-Sep-21 20:30N 33°44' W 118°17'0 0.0
2017-Sep-21 20:00N 33°44' W 118°17'0 0.0
2017-Sep-21 19:30N 33°44' W 118°17'0 0.0
2017-Sep-21 19:00N 33°44' W 118°17'0 0.0
2017-Sep-21 18:30N 33°44' W 118°17'0 0.0
2017-Sep-21 18:00N 33°44' W 118°17'2 4.6
2017-Sep-21 17:30N 33°43' W 118°15'3 5.0
2017-Sep-21 17:00N 33°45' W 118°13'1 1.1
2017-Sep-21 16:30N 33°44' W 118°12'1 1.9
2017-Sep-21 16:00N 33°44' W 118°12'0 0.0
2017-Sep-21 15:28N 33°44' W 118°12'4 7.4
2017-Sep-21 14:59N 33°43' W 118°16'2 3.5
2017-Sep-21 14:30N 33°45' W 118°16'1 2.3
2017-Sep-21 13:57N 33°44' W 118°16'1 1.2
2017-Sep-21 13:28N 33°44' W 118°17'2 4.6
2017-Sep-21 13:00N 33°46' W 118°15'1 1.7
2017-Sep-21 12:29N 33°45' W 118°16'3 5.4
2017-Sep-21 11:59N 33°43' W 118°15'0 0.4
2017-Sep-21 11:30N 33°43' W 118°15'2 3.7
2017-Sep-21 11:00N 33°44' W 118°13'1 2.4
2017-Sep-21 10:26N 33°45' W 118°13'0 0.3
2017-Sep-21 10:00N 33°46' W 118°13'0 0.8
2017-Sep-21 09:30N 33°46' W 118°13'0 0.7
2017-Sep-21 08:58N 33°46' W 118°13'2 4.0
2017-Sep-21 08:30N 33°44' W 118°13'1 2.2
2017-Sep-21 07:54N 33°44' W 118°12'0 0.4
2017-Sep-21 07:24N 33°44' W 118°12'3 8.3
2017-Sep-21 07:00N 33°43' W 118°16'2 3.4
2017-Sep-21 06:30N 33°44' W 118°17'0 0.0
2017-Sep-21 05:59N 33°44' W 118°17'0 0.0
2017-Sep-21 05:30N 33°44' W 118°17'0 0.0
2017-Sep-21 05:00N 33°44' W 118°17'0 0.0
2017-Sep-21 04:30N 33°44' W 118°17'0 0.0
2017-Sep-21 04:00N 33°44' W 118°17'0 0.0
2017-Sep-21 03:30N 33°44' W 118°17'0 0.0
2017-Sep-21 03:00N 33°44' W 118°17'0 0.0
2017-Sep-21 02:30N 33°44' W 118°17'0 0.0
2017-Sep-21 02:00N 33°44' W 118°17'0 0.0
2017-Sep-21 01:30N 33°44' W 118°17'2 4.7
2017-Sep-21 01:00N 33°43' W 118°15'3 5.7
2017-Sep-21 00:30N 33°46' W 118°13'1 2.0
2017-Sep-21 00:00N 33°46' W 118°14'0 0.1
2017-Sep-20 23:30N 33°46' W 118°14'0 0.0
2017-Sep-20 23:00N 33°46' W 118°14'1 1.2
2017-Sep-20 22:30N 33°46' W 118°14'1 1.8
2017-Sep-20 22:00N 33°45' W 118°13'1 1.9
2017-Sep-20 21:29N 33°46' W 118°13'0 0.1
2017-Sep-20 21:00N 33°46' W 118°13'2 5.1
2017-Sep-20 20:30N 33°44' W 118°14'3 5.1
2017-Sep-20 20:00N 33°44' W 118°17'0 0.1
2017-Sep-20 19:30N 33°44' W 118°17'2 4.0
2017-Sep-20 19:00N 33°43' W 118°15'3 5.0
2017-Sep-20 18:30N 33°45' W 118°16'1 2.8
2017-Sep-20 18:00N 33°46' W 118°15'0 0.1
2017-Sep-20 17:30N 33°46' W 118°14'2 4.8
2017-Sep-20 17:00N 33°44' W 118°17'0 0.0
2017-Sep-20 16:30N 33°44' W 118°17'0 0.0
2017-Sep-20 16:00N 33°44' W 118°17'0 0.0
2017-Sep-20 15:29N 33°44' W 118°17'1 2.3
2017-Sep-20 14:53N 33°43' W 118°16'4 4.6
2017-Sep-20 14:00N 33°46' W 118°13'1 2.4
2017-Sep-20 13:30N 33°45' W 118°13'0 0.5
2017-Sep-20 13:00N 33°45' W 118°13'0 0.0
2017-Sep-20 12:26N 33°45' W 118°13'0 0.0
2017-Sep-20 11:59N 33°45' W 118°13'0 0.1
2017-Sep-20 11:28N 33°45' W 118°13'1 3.0
2017-Sep-20 10:59N 33°44' W 118°12'1 1.8
2017-Sep-20 10:30N 33°44' W 118°11'0 0.1
2017-Sep-20 10:00N 33°44' W 118°12'0 0.8
2017-Sep-20 09:30N 33°43' W 118°12'4 7.3
2017-Sep-20 09:00N 33°44' W 118°16'1 1.5
2017-Sep-20 08:30N 33°44' W 118°17'0 0.0
2017-Sep-20 08:00N 33°44' W 118°17'0 0.0
2017-Sep-20 07:30N 33°44' W 118°17'0 0.0
2017-Sep-20 06:57N 33°44' W 118°17'0 0.0
2017-Sep-20 06:30N 33°44' W 118°17'0 0.0
2017-Sep-20 06:00N 33°44' W 118°17'0 0.0
2017-Sep-20 05:29N 33°44' W 118°17'0 0.0
2017-Sep-20 05:00N 33°44' W 118°17'0 0.0
2017-Sep-20 04:29N 33°44' W 118°17'0 0.0
2017-Sep-20 04:00N 33°44' W 118°17'0 0.0
2017-Sep-20 03:30N 33°44' W 118°17'0 0.0
2017-Sep-20 03:00N 33°44' W 118°17'0 0.0
2017-Sep-20 02:30N 33°44' W 118°17'0 0.0
2017-Sep-20 02:00N 33°44' W 118°17'0 0.0
2017-Sep-20 01:30N 33°44' W 118°17'0 0.0
2017-Sep-20 01:00N 33°44' W 118°17'0 0.0
2017-Sep-20 00:30N 33°44' W 118°17'1 2.6
2017-Sep-20 00:00N 33°45' W 118°16'1 2.2
2017-Sep-19 23:30N 33°46' W 118°15'1 1.7
2017-Sep-19 23:00N 33°46' W 118°15'1 1.4
2017-Sep-19 22:30N 33°45' W 118°16'0 0.0
2017-Sep-19 22:00N 33°45' W 118°16'2 3.1
2017-Sep-19 21:30N 33°44' W 118°16'3 6.6
2017-Sep-19 21:01N 33°44' W 118°13'1 1.0
2017-Sep-19 20:30N 33°45' W 118°12'1 2.6
2017-Sep-19 20:00N 33°44' W 118°13'0 0.6
2017-Sep-19 19:30N 33°44' W 118°14'2 4.1
2017-Sep-19 18:59N 33°43' W 118°16'1 2.5
2017-Sep-19 18:30N 33°44' W 118°17'0 0.0
2017-Sep-19 17:59N 33°44' W 118°17'0 0.0
2017-Sep-19 17:29N 33°44' W 118°17'0 0.0
2017-Sep-19 17:00N 33°44' W 118°17'0 0.0
2017-Sep-19 16:30N 33°44' W 118°17'0 0.0
2017-Sep-19 16:00N 33°44' W 118°17'0 0.0
2017-Sep-19 15:29N 33°44' W 118°17'0 0.0
2017-Sep-19 15:00N 33°44' W 118°17'0 0.0
2017-Sep-19 14:27N 33°44' W 118°17'0 0.0
2017-Sep-19 13:58N 33°44' W 118°17'1 1.1
2017-Sep-19 13:23N 33°44' W 118°16'1 3.7
2017-Sep-19 13:00N 33°45' W 118°16'0 0.3
2017-Sep-19 12:29N 33°45' W 118°17'2 3.7
2017-Sep-19 12:00N 33°46' W 118°15'0 0.5
2017-Sep-19 11:28N 33°46' W 118°15'1 1.8
2017-Sep-19 10:58N 33°45' W 118°16'2 4.5
2017-Sep-19 10:29N 33°43' W 118°16'1 2.6
2017-Sep-19 09:58N 33°43' W 118°15'0 0.1
2017-Sep-19 09:29N 33°43' W 118°15'2 4.5
2017-Sep-19 08:59N 33°44' W 118°17'0 0.0
2017-Sep-19 08:30N 33°44' W 118°17'0 0.0
2017-Sep-19 07:57N 33°44' W 118°17'0 0.0
2017-Sep-19 07:28N 33°44' W 118°17'0 0.0
2017-Sep-19 06:58N 33°44' W 118°17'0 0.0
2017-Sep-19 06:30N 33°44' W 118°17'0 0.0
2017-Sep-19 06:00N 33°44' W 118°17'0 0.0
2017-Sep-19 05:30N 33°44' W 118°17'0 0.0
2017-Sep-19 05:00N 33°44' W 118°17'0 0.0
2017-Sep-19 04:28N 33°44' W 118°17'0 0.0
2017-Sep-19 04:00N 33°44' W 118°17'0 0.0
2017-Sep-19 03:30N 33°44' W 118°17'0 0.0
2017-Sep-19 03:00N 33°44' W 118°17'0 0.0
2017-Sep-19 02:28N 33°44' W 118°17'0 0.0
2017-Sep-19 01:58N 33°44' W 118°17'0 0.0
2017-Sep-19 01:28N 33°44' W 118°17'0 0.0
2017-Sep-19 00:59N 33°44' W 118°17'1 1.3
2017-Sep-19 00:31N 33°45' W 118°16'1 2.2
2017-Sep-19 00:00N 33°46' W 118°16'0 0.7
2017-Sep-18 23:30N 33°46' W 118°16'2 3.4
2017-Sep-18 23:00N 33°44' W 118°16'2 3.4
2017-Sep-18 22:28N 33°43' W 118°15'0 0.3
2017-Sep-18 21:57N 33°43' W 118°15'0 1.0
2017-Sep-18 21:30N 33°43' W 118°15'2 4.1
2017-Sep-18 21:00N 33°44' W 118°17'0 0.0
2017-Sep-18 20:28N 33°44' W 118°17'0 0.0
2017-Sep-18 19:59N 33°44' W 118°17'0 0.0
2017-Sep-18 19:31N 33°44' W 118°17'0 0.0
2017-Sep-18 19:00N 33°44' W 118°17'0 0.0
2017-Sep-18 18:31N 33°44' W 118°17'0 0.0
2017-Sep-18 18:00N 33°44' W 118°17'0 0.0
2017-Sep-18 17:30N 33°44' W 118°17'0 0.0
2017-Sep-18 17:00N 33°44' W 118°17'0 0.0
2017-Sep-18 16:31N 33°44' W 118°17'0 0.0
2017-Sep-18 16:00N 33°44' W 118°17'0 0.0
2017-Sep-18 15:30N 33°44' W 118°17'0 0.0
2017-Sep-18 15:00N 33°44' W 118°17'0 0.0
2017-Sep-18 14:27N 33°44' W 118°17'0 0.0
2017-Sep-18 14:00N 33°44' W 118°17'0 0.0
2017-Sep-18 13:28N 33°44' W 118°17'0 0.0
2017-Sep-18 13:00N 33°44' W 118°17'0 0.0
2017-Sep-18 12:26N 33°44' W 118°17'2 4.4
2017-Sep-18 12:01N 33°43' W 118°15'2 4.7
2017-Sep-18 11:29N 33°45' W 118°14'0 0.6
2017-Sep-18 11:00N 33°45' W 118°14'2 4.3
2017-Sep-18 10:30N 33°44' W 118°12'1 1.6
2017-Sep-18 10:00N 33°44' W 118°11'0 0.2
2017-Sep-18 09:31N 33°44' W 118°12'3 6.9
2017-Sep-18 09:00N 33°43' W 118°16'2 3.4
2017-Sep-18 08:30N 33°44' W 118°17'0 0.0
2017-Sep-18 07:57N 33°44' W 118°17'0 0.0
2017-Sep-18 07:29N 33°44' W 118°17'0 0.0
2017-Sep-18 07:00N 33°44' W 118°17'0 0.0
2017-Sep-18 06:27N 33°44' W 118°17'0 0.0
2017-Sep-18 06:00N 33°44' W 118°17'0 0.0
2017-Sep-18 05:28N 33°44' W 118°17'0 0.0
2017-Sep-18 04:58N 33°44' W 118°17'0 0.0
2017-Sep-18 04:30N 33°44' W 118°17'0 0.0
2017-Sep-18 03:59N 33°44' W 118°17'0 0.0
2017-Sep-18 03:30N 33°44' W 118°17'0 0.0
2017-Sep-18 02:59N 33°44' W 118°17'0 0.0
2017-Sep-18 02:30N 33°44' W 118°17'0 0.0
2017-Sep-18 02:00N 33°44' W 118°17'0 0.0
2017-Sep-18 01:29N 33°44' W 118°17'0 0.0
2017-Sep-18 00:57N 33°44' W 118°17'0 0.0
2017-Sep-18 00:28N 33°44' W 118°17'0 0.0
2017-Sep-18 00:00N 33°44' W 118°17'0 0.0
2017-Sep-17 23:30N 33°44' W 118°17'0 0.0
2017-Sep-17 23:00N 33°44' W 118°17'0 0.0
2017-Sep-17 22:30N 33°44' W 118°17'0 0.0
2017-Sep-17 21:56N 33°44' W 118°17'0 0.0
2017-Sep-17 21:29N 33°44' W 118°17'0 0.0
2017-Sep-17 21:00N 33°44' W 118°17'0 0.0
2017-Sep-17 20:30N 33°44' W 118°17'0 0.0
2017-Sep-17 19:59N 33°44' W 118°17'0 0.0
2017-Sep-17 19:29N 33°44' W 118°17'0 0.0
2017-Sep-17 19:00N 33°44' W 118°17'0 0.0
2017-Sep-17 18:28N 33°44' W 118°17'0 0.0
2017-Sep-17 18:00N 33°44' W 118°17'0 0.0
2017-Sep-17 17:29N 33°44' W 118°17'0 0.0
2017-Sep-17 16:53N 33°44' W 118°17'0 0.0
2017-Sep-17 16:23N 33°44' W 118°17'0 0.0
2017-Sep-17 15:57N 33°44' W 118°17'0 0.7
2017-Sep-17 15:24N 33°44' W 118°17'3 5.5
2017-Sep-17 14:56N 33°44' W 118°13'2 3.6
2017-Sep-17 14:30N 33°45' W 118°13'0 0.0
2017-Sep-17 13:59N 33°45' W 118°13'0 0.5
2017-Sep-17 13:26N 33°45' W 118°13'1 3.2
2017-Sep-17 12:59N 33°44' W 118°12'1 1.5
2017-Sep-17 12:28N 33°43' W 118°12'0 0.0
2017-Sep-17 11:59N 33°43' W 118°12'0 0.3
2017-Sep-17 11:30N 33°44' W 118°12'4 7.4
2017-Sep-17 11:00N 33°43' W 118°16'1 2.2
2017-Sep-17 10:29N 33°44' W 118°17'0 0.0
2017-Sep-17 09:55N 33°44' W 118°17'0 0.0
2017-Sep-17 09:29N 33°44' W 118°17'0 0.0
2017-Sep-17 09:00N 33°44' W 118°17'0 0.0
2017-Sep-17 08:30N 33°44' W 118°17'0 0.0
2017-Sep-17 08:00N 33°44' W 118°17'0 0.0
2017-Sep-17 07:30N 33°44' W 118°17'0 0.0
2017-Sep-17 06:58N 33°44' W 118°17'0 0.0
2017-Sep-17 06:28N 33°44' W 118°17'0 0.0
2017-Sep-17 05:56N 33°44' W 118°17'0 0.0
2017-Sep-17 05:28N 33°44' W 118°17'0 0.0
2017-Sep-17 05:00N 33°44' W 118°17'0 0.0
2017-Sep-17 04:29N 33°44' W 118°17'0 0.0
2017-Sep-17 04:00N 33°44' W 118°17'0 0.0
2017-Sep-17 03:30N 33°44' W 118°17'0 0.0
2017-Sep-17 02:59N 33°44' W 118°17'0 0.0
2017-Sep-17 02:27N 33°44' W 118°17'0 0.0
2017-Sep-17 02:00N 33°44' W 118°17'0 0.0
2017-Sep-17 01:29N 33°44' W 118°17'0 0.0
2017-Sep-17 01:00N 33°44' W 118°17'0 0.0
2017-Sep-17 00:30N 33°44' W 118°17'0 0.0
2017-Sep-16 23:59N 33°44' W 118°17'0 0.0
2017-Sep-16 23:30N 33°44' W 118°17'0 0.0
2017-Sep-16 23:00N 33°44' W 118°17'0 0.0
2017-Sep-16 22:30N 33°44' W 118°17'0 0.0
2017-Sep-16 22:00N 33°44' W 118°17'0 0.0
2017-Sep-16 21:30N 33°44' W 118°17'0 0.0
2017-Sep-16 21:00N 33°44' W 118°17'1 2.7
2017-Sep-16 20:30N 33°43' W 118°16'3 5.9
2017-Sep-16 20:00N 33°41' W 118°19'5 9.2
2017-Sep-16 19:25N 33°43' W 118°25'4 8.7
2017-Sep-16 19:00N 33°46' W 118°27'8 5.0
2017-Sep-16 17:23N 33°54' W 118°27'7 2.6
2017-Sep-16 14:43N 33°48' W 118°28'2 8.9
2017-Sep-16 14:30N 33°46' W 118°27'6 8.4
2017-Sep-16 13:50N 33°42' W 118°22'4 8.5
2017-Sep-16 13:22N 33°41' W 118°17'2 6.0
2017-Sep-16 12:58N 33°43' W 118°15'2 4.1
2017-Sep-16 12:30N 33°44' W 118°17'0 0.0
2017-Sep-16 11:54N 33°44' W 118°17'0 0.0
2017-Sep-16 11:27N 33°44' W 118°17'0 0.0
2017-Sep-16 11:00N 33°44' W 118°17'0 0.0
2017-Sep-16 10:28N 33°44' W 118°17'0 0.0
2017-Sep-16 09:55N 33°44' W 118°17'0 0.0
2017-Sep-16 09:30N 33°44' W 118°17'0 0.0
2017-Sep-16 09:00N 33°44' W 118°17'0 0.0
2017-Sep-16 08:28N 33°44' W 118°17'0 0.0
2017-Sep-16 08:00N 33°44' W 118°17'0 0.0
2017-Sep-16 07:27N 33°44' W 118°17'0 0.0
2017-Sep-16 07:00N 33°44' W 118°17'0 0.0
2017-Sep-16 06:30N 33°44' W 118°17'0 0.0
2017-Sep-16 05:59N 33°44' W 118°17'0 0.0
2017-Sep-16 05:28N 33°44' W 118°17'0 0.0
2017-Sep-16 05:00N 33°44' W 118°17'0 0.0
2017-Sep-16 04:30N 33°44' W 118°17'0 0.0
2017-Sep-16 04:00N 33°44' W 118°17'0 0.0
2017-Sep-16 03:30N 33°44' W 118°17'1 1.4
2017-Sep-16 03:00N 33°44' W 118°16'3 5.7
2017-Sep-16 02:30N 33°45' W 118°13'1 2.7
2017-Sep-16 02:00N 33°46' W 118°13'0 0.8
2017-Sep-16 01:30N 33°46' W 118°13'0 0.2
2017-Sep-16 01:00N 33°46' W 118°13'0 0.0
2017-Sep-16 00:30N 33°46' W 118°13'1 2.4
2017-Sep-16 00:00N 33°45' W 118°13'0 0.0
2017-Sep-15 23:30N 33°45' W 118°13'0 0.0
2017-Sep-15 23:00N 33°45' W 118°13'0 0.0
2017-Sep-15 22:30N 33°45' W 118°13'2 4.4
2017-Sep-15 22:00N 33°43' W 118°14'1 2.3
2017-Sep-15 21:30N 33°44' W 118°15'0 0.9
2017-Sep-15 21:00N 33°44' W 118°16'1 2.4
2017-Sep-15 20:30N 33°43' W 118°15'0 0.8
2017-Sep-15 19:59N 33°43' W 118°15'2 3.1
2017-Sep-15 19:30N 33°44' W 118°16'1 1.8
2017-Sep-15 19:00N 33°44' W 118°17'0 0.0
2017-Sep-15 18:30N 33°44' W 118°17'0 0.0
2017-Sep-15 18:00N 33°44' W 118°17'0 0.0
2017-Sep-15 17:30N 33°44' W 118°17'0 0.0
2017-Sep-15 17:00N 33°44' W 118°17'0 0.0
2017-Sep-15 16:29N 33°44' W 118°17'0 0.0
2017-Sep-15 15:58N 33°44' W 118°17'0 0.0
2017-Sep-15 15:30N 33°44' W 118°17'3 5.7
2017-Sep-15 15:00N 33°43' W 118°14'2 3.8
2017-Sep-15 14:29N 33°45' W 118°13'0 0.5
2017-Sep-15 13:57N 33°46' W 118°13'0 0.2
2017-Sep-15 13:29N 33°45' W 118°13'0 0.6
2017-Sep-15 13:00N 33°45' W 118°13'3 6.8
2017-Sep-15 12:30N 33°43' W 118°16'1 2.9
2017-Sep-15 12:00N 33°44' W 118°17'0 0.0
2017-Sep-15 11:30N 33°44' W 118°17'0 0.0
2017-Sep-15 11:00N 33°44' W 118°17'0 0.0
2017-Sep-15 10:30N 33°44' W 118°17'0 0.0
2017-Sep-15 10:00N 33°44' W 118°17'0 0.0
2017-Sep-15 09:30N 33°44' W 118°17'0 0.0
2017-Sep-15 09:01N 33°44' W 118°17'0 0.0
2017-Sep-15 08:30N 33°44' W 118°17'0 0.0
2017-Sep-15 08:00N 33°44' W 118°17'1 1.8
2017-Sep-15 07:30N 33°45' W 118°16'1 1.2
2017-Sep-15 07:00N 33°45' W 118°16'2 4.9
2017-Sep-15 06:30N 33°43' W 118°15'0 0.2
2017-Sep-15 06:00N 33°43' W 118°15'2 3.9
2017-Sep-15 05:30N 33°44' W 118°16'1 1.1
2017-Sep-15 05:00N 33°44' W 118°17'0 0.0
2017-Sep-15 04:30N 33°44' W 118°17'0 0.0
2017-Sep-15 03:58N 33°44' W 118°17'0 0.0
2017-Sep-15 03:30N 33°44' W 118°17'0 0.0
2017-Sep-15 03:00N 33°44' W 118°17'0 0.0
2017-Sep-15 02:30N 33°44' W 118°17'0 0.0
2017-Sep-15 02:00N 33°44' W 118°17'0 0.0
2017-Sep-15 01:30N 33°44' W 118°17'0 0.0
2017-Sep-15 00:59N 33°44' W 118°17'0 0.0
2017-Sep-15 00:30N 33°44' W 118°17'0 0.0
2017-Sep-15 00:00N 33°44' W 118°17'0 0.0
2017-Sep-14 23:30N 33°44' W 118°17'0 0.0
2017-Sep-14 23:00N 33°44' W 118°17'0 0.0
2017-Sep-14 22:30N 33°44' W 118°17'0 0.0
2017-Sep-14 22:00N 33°44' W 118°17'0 0.0
2017-Sep-14 21:29N 33°44' W 118°17'0 0.0
2017-Sep-14 21:00N 33°44' W 118°17'0 0.0
2017-Sep-14 20:30N 33°44' W 118°17'0 0.0
2017-Sep-14 20:00N 33°44' W 118°17'0 0.0
2017-Sep-14 19:30N 33°44' W 118°17'0 0.0
2017-Sep-14 19:00N 33°44' W 118°17'0 0.0
2017-Sep-14 18:30N 33°44' W 118°17'0 0.0
2017-Sep-14 18:00N 33°44' W 118°17'0 0.0
2017-Sep-14 17:29N 33°44' W 118°17'0 0.0
2017-Sep-14 17:00N 33°44' W 118°17'0 0.0
2017-Sep-14 16:30N 33°44' W 118°17'0 0.0
2017-Sep-14 16:00N 33°44' W 118°17'0 0.0
2017-Sep-14 15:30N 33°44' W 118°17'0 0.0
2017-Sep-14 15:00N 33°44' W 118°17'0 0.0
2017-Sep-14 14:30N 33°44' W 118°17'0 0.0
2017-Sep-14 14:00N 33°44' W 118°17'0 0.0
2017-Sep-14 13:30N 33°44' W 118°17'0 0.0
2017-Sep-14 13:00N 33°44' W 118°17'1 1.5
2017-Sep-14 12:30N 33°45' W 118°16'2 4.2
2017-Sep-14 12:01N 33°43' W 118°16'0 0.9
2017-Sep-14 11:31N 33°43' W 118°15'1 2.1
2017-Sep-14 11:00N 33°44' W 118°15'1 1.9
2017-Sep-14 10:30N 33°43' W 118°16'1 2.7
2017-Sep-14 09:59N 33°44' W 118°17'0 0.0
2017-Sep-14 09:29N 33°44' W 118°17'0 0.0
2017-Sep-14 09:00N 33°44' W 118°17'0 0.0
2017-Sep-14 08:30N 33°44' W 118°17'1 1.1
2017-Sep-14 08:00N 33°45' W 118°16'2 2.9
2017-Sep-14 07:29N 33°46' W 118°15'0 0.6
2017-Sep-14 06:59N 33°46' W 118°15'2 3.7
2017-Sep-14 06:30N 33°44' W 118°17'0 0.0
2017-Sep-14 05:59N 33°44' W 118°17'0 0.0
2017-Sep-14 05:30N 33°44' W 118°17'0 0.0
2017-Sep-14 05:00N 33°44' W 118°17'0 0.0
2017-Sep-14 04:30N 33°44' W 118°17'0 0.0
2017-Sep-14 04:00N 33°44' W 118°17'0 0.0
2017-Sep-14 03:30N 33°44' W 118°17'2 4.2
2017-Sep-14 03:00N 33°43' W 118°15'3 5.5
2017-Sep-14 02:30N 33°45' W 118°12'1 1.3
2017-Sep-14 02:00N 33°45' W 118°13'1 2.5
2017-Sep-14 01:30N 33°46' W 118°14'0 0.3
2017-Sep-14 01:00N 33°46' W 118°14'0 0.7
2017-Sep-14 00:29N 33°46' W 118°14'1 2.7
2017-Sep-14 00:00N 33°45' W 118°13'0 0.0
2017-Sep-13 23:30N 33°45' W 118°13'0 0.0
2017-Sep-13 22:59N 33°45' W 118°13'0 0.0
2017-Sep-13 22:30N 33°45' W 118°13'1 1.0
2017-Sep-13 22:00N 33°45' W 118°12'1 1.2
2017-Sep-13 21:31N 33°44' W 118°12'2 4.6
2017-Sep-13 20:59N 33°44' W 118°09'0 0.1
2017-Sep-13 20:29N 33°44' W 118°09'3 5.9
2017-Sep-13 20:00N 33°45' W 118°13'1 1.0
2017-Sep-13 19:30N 33°45' W 118°13'0 0.0
2017-Sep-13 19:00N 33°45' W 118°13'0 0.0
2017-Sep-13 18:30N 33°45' W 118°13'0 0.0
2017-Sep-13 18:00N 33°45' W 118°13'0 0.0
2017-Sep-13 17:30N 33°45' W 118°13'0 0.0
2017-Sep-13 17:00N 33°45' W 118°13'0 0.0
2017-Sep-13 16:30N 33°45' W 118°13'0 0.0
2017-Sep-13 16:00N 33°45' W 118°13'0 0.0
2017-Sep-13 15:30N 33°45' W 118°13'0 0.0
2017-Sep-13 15:00N 33°45' W 118°13'0 0.0
2017-Sep-13 14:30N 33°45' W 118°13'0 0.1
2017-Sep-13 14:00N 33°45' W 118°13'0 0.9
2017-Sep-13 13:30N 33°45' W 118°12'1 1.4
2017-Sep-13 13:00N 33°45' W 118°13'0 0.1
2017-Sep-13 12:30N 33°45' W 118°13'0 0.4
2017-Sep-13 12:00N 33°45' W 118°13'1 2.3
2017-Sep-13 11:30N 33°45' W 118°14'0 0.5
2017-Sep-13 11:00N 33°45' W 118°14'1 3.0
2017-Sep-13 10:30N 33°44' W 118°12'1 3.0
2017-Sep-13 10:00N 33°44' W 118°11'2 4.3
2017-Sep-13 09:30N 33°45' W 118°13'0 0.5
2017-Sep-13 09:00N 33°45' W 118°13'0 0.0
2017-Sep-13 08:30N 33°45' W 118°13'0 0.0
2017-Sep-13 08:00N 33°45' W 118°13'0 0.0
2017-Sep-13 07:30N 33°45' W 118°13'0 0.0
2017-Sep-13 07:00N 33°45' W 118°13'0 0.0
2017-Sep-13 06:30N 33°45' W 118°13'0 0.0
2017-Sep-13 06:00N 33°45' W 118°13'1 2.1
2017-Sep-13 05:30N 33°46' W 118°13'0 0.4
2017-Sep-13 05:01N 33°46' W 118°13'0 0.3
2017-Sep-13 04:30N 33°46' W 118°13'3 6.5
2017-Sep-13 04:00N 33°43' W 118°14'2 4.7
2017-Sep-13 03:30N 33°44' W 118°17'0 0.0
2017-Sep-13 03:00N 33°44' W 118°17'0 0.0
2017-Sep-13 02:30N 33°44' W 118°17'0 0.0
2017-Sep-13 02:00N 33°44' W 118°17'0 0.0
2017-Sep-13 01:30N 33°44' W 118°17'0 0.0
2017-Sep-13 01:00N 33°44' W 118°17'0 0.0
2017-Sep-13 00:30N 33°44' W 118°17'0 0.0
2017-Sep-13 00:00N 33°44' W 118°17'0 0.0
2017-Sep-12 23:30N 33°44' W 118°17'0 0.0
2017-Sep-12 23:00N 33°44' W 118°17'0 0.2
2017-Sep-12 22:30N 33°44' W 118°17'3 5.7
2017-Sep-12 22:01N 33°44' W 118°13'2 3.1
2017-Sep-12 21:29N 33°45' W 118°12'1 1.7
2017-Sep-12 21:00N 33°44' W 118°12'0 0.9
2017-Sep-12 20:31N 33°44' W 118°13'3 5.8
2017-Sep-12 20:00N 33°44' W 118°17'1 1.0
2017-Sep-12 19:31N 33°44' W 118°17'0 0.0
2017-Sep-12 19:00N 33°44' W 118°17'0 0.0
2017-Sep-12 18:30N 33°44' W 118°17'0 0.0
2017-Sep-12 18:00N 33°44' W 118°17'0 0.0
2017-Sep-12 17:31N 33°44' W 118°17'0 0.0
2017-Sep-12 17:00N 33°44' W 118°17'0 0.0
2017-Sep-12 16:30N 33°44' W 118°17'0 0.0
2017-Sep-12 16:00N 33°44' W 118°17'0 0.0
2017-Sep-12 15:31N 33°44' W 118°17'0 0.0
2017-Sep-12 15:00N 33°44' W 118°17'0 0.0
2017-Sep-12 14:30N 33°44' W 118°17'0 0.0
2017-Sep-12 14:00N 33°44' W 118°17'1 1.0
2017-Sep-12 13:30N 33°45' W 118°16'0 0.7
2017-Sep-12 13:00N 33°45' W 118°17'1 1.8
2017-Sep-12 12:30N 33°44' W 118°16'1 1.1
2017-Sep-12 12:00N 33°43' W 118°16'3 5.2
2017-Sep-12 11:30N 33°44' W 118°13'1 2.7
2017-Sep-12 11:00N 33°45' W 118°15'1 1.9
2017-Sep-12 10:30N 33°45' W 118°13'2 4.6
2017-Sep-12 10:01N 33°43' W 118°11'0 0.7
2017-Sep-12 09:30N 33°44' W 118°12'4 7.5
2017-Sep-12 09:00N 33°43' W 118°16'1 2.3
2017-Sep-12 08:30N 33°44' W 118°17'0 0.0
2017-Sep-12 08:00N 33°44' W 118°17'0 0.0
2017-Sep-12 07:30N 33°44' W 118°17'0 0.0
2017-Sep-12 07:01N 33°44' W 118°17'0 0.0
2017-Sep-12 06:31N 33°44' W 118°17'0 0.0
2017-Sep-12 06:00N 33°44' W 118°17'0 0.0
2017-Sep-12 05:30N 33°44' W 118°17'0 0.0
2017-Sep-12 05:00N 33°44' W 118°17'0 0.0
2017-Sep-12 04:31N 33°44' W 118°17'0 0.0
2017-Sep-12 04:00N 33°44' W 118°17'0 0.0
2017-Sep-12 03:30N 33°44' W 118°17'1 1.8
2017-Sep-12 03:00N 33°44' W 118°16'3 6.5
2017-Sep-12 02:31N 33°44' W 118°12'2 4.1
2017-Sep-12 02:00N 33°43' W 118°14'3 6.7
2017-Sep-12 01:30N 33°46' W 118°16'0 0.0
2017-Sep-12 01:00N 33°46' W 118°16'0 0.6
2017-Sep-12 00:30N 33°46' W 118°17'0 0.1
2017-Sep-12 00:00N 33°46' W 118°16'0 0.4
2017-Sep-11 23:30N 33°46' W 118°16'2 3.0
2017-Sep-11 23:00N 33°44' W 118°17'  

Dump ship's entire track history